Time;durP1;ratioP1;P1;durP2;ratioP2;P2;SDS_P1;SDS_P2;PMS_P1;PMS_P2;Temp;Humidity;BMP_temperature;BMP_pressure;BME280_temperature;BME280_humidity;BME280_pressure;Samples;Min_cycle;Max_cycle;Signal;HPM_P1;HPM_P2
2022/01/03 00:00:16;;;;;;;4.18;2.60;;;;;;;20.04;21.77;98496.13;5073944;28;20514;-64
2022/01/03 00:02:44;;;;;;;4.90;2.75;;;;;;;20.06;21.76;98491.38;5073390;28;20025;-64
2022/01/03 00:05:10;;;;;;;6.68;2.60;;;;;;;20.09;21.85;98492.78;5073962;28;20028;-64
2022/01/03 00:07:41;;;;;;;3.35;2.45;;;;;;;20.12;21.73;98487.00;5068510;28;20064;-64
2022/01/03 00:10:08;;;;;;;2.60;2.08;;;;;;;20.15;21.84;98486.56;5054157;28;20369;-65
2022/01/03 00:12:35;;;;;;;3.22;2.60;;;;;;;20.17;21.64;98484.50;5053474;28;20037;-64
2022/01/03 00:15:02;;;;;;;5.28;2.40;;;;;;;20.18;21.64;98480.78;5053826;28;20588;-64
2022/01/03 00:17:27;;;;;;;3.58;2.33;;;;;;;20.18;21.68;98477.28;5053297;28;20409;-65
2022/01/03 00:19:53;;;;;;;3.17;2.03;;;;;;;20.21;21.48;98482.25;5060655;28;20101;-65
2022/01/03 00:22:21;;;;;;;4.00;2.03;;;;;;;20.21;21.56;98474.19;5073561;28;20368;-64
2022/01/03 00:25:01;;;;;;;4.88;1.98;;;;;;;20.22;21.71;98457.84;5073268;28;20119;-66
2022/01/03 00:27:51;;;;;;;3.13;1.63;;;;;;;20.25;21.66;98461.97;5073669;28;20072;-64
2022/01/03 00:30:21;;;;;;;3.83;2.03;;;;;;;20.24;21.52;98453.09;5073637;28;20505;-65
2022/01/03 00:32:49;;;;;;;3.50;2.20;;;;;;;20.26;21.63;98456.41;5073214;28;20034;-65
2022/01/03 00:35:15;;;;;;;3.88;2.22;;;;;;;20.30;21.56;98443.38;5072940;28;20042;-64
2022/01/03 00:37:44;;;;;;;3.42;2.10;;;;;;;20.32;21.44;98435.94;5073097;28;20434;-65
2022/01/03 00:40:10;;;;;;;3.30;1.95;;;;;;;20.33;21.53;98431.38;5072919;28;20037;-64
2022/01/03 00:42:35;;;;;;;3.80;1.58;;;;;;;20.33;21.30;98429.53;5073178;28;20437;-65
2022/01/03 00:45:03;;;;;;;3.00;1.70;;;;;;;20.38;21.43;98420.84;5073112;28;20028;-65
2022/01/03 00:47:33;;;;;;;3.67;1.70;;;;;;;20.36;21.40;98415.69;5055179;28;20044;-64
2022/01/03 00:50:11;;;;;;;2.00;1.20;;;;;;;20.37;21.43;98406.56;5073155;28;20059;-65
2022/01/03 00:52:37;;;;;;;3.95;1.30;;;;;;;20.39;21.51;98412.53;5055163;28;20479;-64
2022/01/03 00:55:04;;;;;;;2.10;1.17;;;;;;;20.42;21.54;98401.38;5072658;28;20039;-64
2022/01/03 00:57:54;;;;;;;2.88;1.23;;;;;;;20.45;21.53;98405.50;5061718;28;20028;-65
2022/01/03 01:00:20;;;;;;;2.75;1.30;;;;;;;20.43;21.52;98386.91;5067176;28;20039;-65
2022/01/03 01:02:56;;;;;;;2.20;1.25;;;;;;;20.48;21.24;98385.47;5073020;28;20029;-64
2022/01/03 01:05:23;;;;;;;2.05;1.10;;;;;;;20.48;21.31;98385.47;5072731;28;20028;-65
2022/01/03 01:07:53;;;;;;;2.25;1.27;;;;;;;20.51;21.14;98382.34;5072314;28;20032;-65
2022/01/03 01:10:19;;;;;;;2.90;1.50;;;;;;;20.51;21.38;98371.59;5072439;28;20495;-65
2022/01/03 01:12:46;;;;;;;3.20;1.90;;;;;;;20.53;21.13;98356.91;5071928;28;20033;-65
2022/01/03 01:15:14;;;;;;;2.28;1.20;;;;;;;20.55;21.24;98354.81;5072400;28;20040;-64
2022/01/03 01:17:40;;;;;;;1.65;1.02;;;;;;;20.59;21.17;98360.59;5072156;28;20048;-65
2022/01/03 01:20:07;;;;;;;4.05;1.55;;;;;;;20.59;21.04;98347.97;5072652;28;20117;-65
2022/01/03 01:22:32;;;;;;;2.67;1.50;;;;;;;20.61;21.09;98344.25;5072383;28;20032;-65
2022/01/03 01:27:56;;;;;;;3.28;1.27;;;;;;;20.57;21.28;98338.47;5049135;28;20041;-65
2022/01/03 01:30:27;;;;;;;2.47;1.15;;;;;;;20.61;21.15;98342.38;5073360;28;20139;-65
2022/01/03 01:32:58;;;;;;;1.55;0.85;;;;;;;20.56;21.11;98334.97;5072181;28;20040;-66
2022/01/03 01:35:29;;;;;;;3.10;1.20;;;;;;;20.60;21.01;98324.63;5072351;28;20032;-65
2022/01/03 01:37:55;;;;;;;;;;;;;;;20.42;21.54;98323.47;5072754;28;20042;-65
2022/01/03 01:40:23;;;;;;;1.98;1.40;;;;;;;20.49;21.21;98307.31;5072653;28;19912;-64
2022/01/03 01:42:49;;;;;;;3.47;1.23;;;;;;;20.60;20.96;98308.50;5072261;28;20068;-64
2022/01/03 01:45:19;;;;;;;2.53;1.38;;;;;;;20.63;20.91;98308.06;5064052;28;20064;-68
2022/01/03 01:47:48;;;;;;;2.60;1.40;;;;;;;20.66;21.13;98307.59;5052276;28;20049;-65
2022/01/03 01:50:14;;;;;;;1.98;1.27;;;;;;;20.66;20.93;98291.47;5052238;28;20431;-65
2022/01/03 01:52:44;;;;;;;3.90;1.33;;;;;;;20.69;20.99;98298.31;5051768;28;20033;-66
2022/01/03 01:55:13;;;;;;;2.58;1.48;;;;;;;20.73;21.06;98296.84;5051846;28;20123;-65
2022/01/03 01:57:54;;;;;;;2.58;1.30;;;;;;;20.72;21.07;98290.63;5051914;28;20110;-65
2022/01/03 02:00:19;;;;;;;;;;;;;;;20.49;21.83;98290.38;5054389;28;20060;-58
2022/01/03 02:03:07;;;;;;;2.40;1.20;;;;;;;20.56;21.61;98283.94;5052036;28;20021;-67
2022/01/03 02:05:43;;;;;;;2.78;1.58;;;;;;;20.73;21.21;98281.53;5051705;28;20043;-64
2022/01/03 02:08:32;;;;;;;3.10;1.42;;;;;;;20.86;21.39;98272.59;5051775;28;20033;-65
2022/01/03 02:11:27;;;;;;;2.28;1.17;;;;;;;20.93;21.37;98266.31;5052226;28;20488;-64
2022/01/03 02:13:53;;;;;;;1.95;1.40;;;;;;;20.94;21.03;98260.72;5062488;28;20542;-66
2022/01/03 02:18:48;;;;;;;2.20;1.08;;;;;;;20.99;21.04;98262.75;5094684;27;20927;-65
2022/01/03 02:21:14;;;;;;;2.10;1.20;;;;;;;21.04;21.13;98262.91;5088538;28;20111;-65
2022/01/03 02:23:40;;;;;;;1.52;0.90;;;;;;;21.03;21.26;98254.03;5069380;28;20025;-64
2022/01/03 02:26:06;;;;;;;1.98;1.23;;;;;;;21.04;21.24;98255.66;5069320;28;20086;-65
2022/01/03 02:28:32;;;;;;;4.07;1.55;;;;;;;21.05;21.16;98251.09;5069638;28;20442;-65
2022/01/03 02:30:57;;;;;;;2.85;1.42;;;;;;;21.02;21.48;98241.63;5069407;28;20033;-65
2022/01/03 02:33:23;;;;;;;2.55;1.50;;;;;;;21.01;21.16;98237.28;5054625;28;20061;-64
2022/01/03 02:35:49;;;;;;;2.08;1.45;;;;;;;21.01;21.17;98239.97;5056580;28;20029;-65
2022/01/03 02:38:16;;;;;;;2.38;1.23;;;;;;;21.01;21.14;98229.22;5069067;28;20043;-64
2022/01/03 02:40:43;;;;;;;2.30;1.27;;;;;;;21.01;21.30;98221.16;5069146;28;20124;-65
2022/01/03 02:43:09;;;;;;;1.70;1.10;;;;;;;21.01;21.33;98217.66;5067594;28;20041;-65
2022/01/03 02:45:34;;;;;;;3.05;1.20;;;;;;;20.97;21.55;98211.06;5069201;28;20446;-65
2022/01/03 02:48:04;;;;;;;1.50;1.10;;;;;;;20.97;21.30;98211.88;5069301;28;20025;-64
2022/01/03 02:50:33;;;;;;;2.28;1.30;;;;;;;20.97;21.30;98206.50;5069502;28;20082;-66
2022/01/03 02:52:59;;;;;;;2.20;1.23;;;;;;;20.94;21.38;98201.56;5064347;28;20119;-65
2022/01/03 02:55:26;;;;;;;2.70;1.50;;;;;;;20.94;21.34;98204.28;5049498;28;20033;-66
2022/01/03 02:57:55;;;;;;;3.88;1.60;;;;;;;20.94;21.51;98201.56;5048950;28;20040;-64
2022/01/03 03:00:24;;;;;;;3.53;1.35;;;;;;;20.92;21.44;98198.28;5057267;28;20029;-65
2022/01/03 03:02:51;;;;;;;1.52;1.20;;;;;;;20.92;21.58;98200.13;5048077;28;20025;-64
2022/01/03 03:05:17;;;;;;;2.20;1.42;;;;;;;20.92;21.52;98203.66;5066820;28;20037;-66
2022/01/03 03:07:43;;;;;;;2.13;1.38;;;;;;;20.90;21.20;98200.38;5057852;28;20397;-63
2022/01/03 03:10:13;;;;;;;1.67;1.05;;;;;;;20.89;21.35;98194.16;5068891;28;20070;-65
2022/01/03 03:12:39;;;;;;;4.63;1.15;;;;;;;20.88;21.45;98189.81;5068462;28;20043;-65
2022/01/03 03:15:08;;;;;;;2.58;1.40;;;;;;;20.87;21.39;98190.06;5065382;28;20082;-64
2022/01/03 03:17:34;;;;;;;1.60;1.10;;;;;;;20.84;21.55;98185.09;5066731;28;20045;-65
2022/01/03 03:20:10;;;;;;;3.63;1.40;;;;;;;20.84;21.35;98190.47;5067094;28;20029;-64
2022/01/03 03:22:37;;;;;;;4.97;1.70;;;;;;;20.80;21.56;98200.88;5066866;28;20045;-63
2022/01/03 03:25:14;;;;;;;1.77;1.15;;;;;;;20.77;21.52;98195.13;5067092;28;20036;-64
2022/01/03 03:27:46;;;;;;;3.17;1.70;;;;;;;20.73;21.51;98187.44;5066194;28;20032;-64
2022/01/03 03:30:19;;;;;;;2.47;1.40;;;;;;;20.71;21.49;98178.78;5052120;28;20033;-64
2022/01/03 03:32:45;;;;;;;2.55;1.40;;;;;;;20.67;21.44;98182.94;5053645;28;20450;-64
2022/01/03 03:35:11;;;;;;;2.42;1.60;;;;;;;20.68;21.40;98173.03;5053697;28;20032;-64
2022/01/03 03:37:37;;;;;;;3.10;1.48;;;;;;;20.66;21.26;98173.22;5053184;28;20444;-64
2022/01/03 03:40:04;;;;;;;1.80;1.15;;;;;;;20.63;21.30;98162.09;5053766;28;20503;-64
2022/01/03 03:42:30;;;;;;;2.47;1.48;;;;;;;20.61;21.52;98164.19;5053232;28;20033;-64
2022/01/03 03:44:55;;;;;;;2.95;1.35;;;;;;;20.57;21.60;98151.22;5033509;28;20044;-63
2022/01/03 03:47:21;;;;;;;2.75;1.85;;;;;;;20.53;21.59;98154.53;5053356;28;20069;-64
2022/01/03 03:49:46;;;;;;;2.70;2.00;;;;;;;20.51;21.49;98137.84;5053689;28;20442;-64
2022/01/03 03:52:12;;;;;;;3.28;1.70;;;;;;;20.49;21.60;98139.91;5052434;28;20040;-66
2022/01/03 03:54:37;;;;;;;2.85;1.67;;;;;;;20.47;21.34;98147.38;5053283;28;20087;-65
2022/01/03 03:57:04;;;;;;;2.88;1.40;;;;;;;20.42;21.27;98124.66;5050743;28;20029;-64
2022/01/03 03:59:30;;;;;;;2.58;1.30;;;;;;;20.43;21.58;98118.25;5053449;28;20035;-65
2022/01/03 04:01:57;;;;;;;3.10;1.67;;;;;;;20.41;21.59;98117.66;5053179;28;20086;-65
2022/01/03 04:04:23;;;;;;;1.73;1.30;;;;;;;20.40;21.43;98124.06;5053328;28;20091;-66
2022/01/03 04:06:49;;;;;;;4.00;1.40;;;;;;;20.38;21.58;98122.66;5053537;28;20032;-65
2022/01/03 04:09:15;;;;;;;3.80;1.40;;;;;;;20.31;21.51;98117.34;5053081;28;20055;-64
2022/01/03 04:11:40;;;;;;;2.08;1.20;;;;;;;20.30;21.66;98118.38;5051005;28;20090;-64
2022/01/03 04:14:06;;;;;;;2.72;1.35;;;;;;;20.28;21.82;98112.38;5052992;28;20040;-65
2022/01/03 04:16:34;;;;;;;2.08;1.25;;;;;;;20.25;21.72;98115.50;5053878;28;20519;-65
2022/01/03 04:19:00;;;;;;;3.30;1.52;;;;;;;20.24;21.77;98113.84;5054292;28;20087;-66
2022/01/03 04:21:26;;;;;;;1.85;1.30;;;;;;;20.20;21.80;98110.78;5052698;28;20041;-64
2022/01/03 04:23:52;;;;;;;3.38;1.38;;;;;;;20.20;21.70;98099.25;5050175;28;20051;-65
2022/01/03 04:26:18;;;;;;;3.20;1.48;;;;;;;20.18;21.85;98102.13;5052508;28;20033;-65
2022/01/03 04:28:44;;;;;;;3.00;1.35;;;;;;;20.17;21.98;98097.00;5052597;28;20087;-65
2022/01/03 04:31:10;;;;;;;3.13;1.50;;;;;;;20.16;21.77;98088.09;5052101;28;20078;-64
2022/01/03 04:33:35;;;;;;;2.97;1.27;;;;;;;20.16;21.88;98087.28;5052228;28;20476;-66
2022/01/03 04:36:01;;;;;;;2.30;1.40;;;;;;;20.11;21.92;98086.06;5052690;28;20040;-65
2022/01/03 04:38:27;;;;;;;2.35;1.10;;;;;;;20.10;21.74;98073.69;5052292;28;20124;-65
2022/01/03 04:40:53;;;;;;;2.72;1.10;;;;;;;20.09;22.02;98076.59;5051686;28;20075;-66
2022/01/03 04:43:18;;;;;;;2.40;1.20;;;;;;;20.07;21.83;98076.00;5052537;28;20059;-66
2022/01/03 04:45:44;;;;;;;1.52;1.10;;;;;;;20.06;22.08;98066.28;5048195;28;20029;-64
2022/01/03 04:48:10;;;;;;;2.17;1.98;;;;;;;20.03;21.94;98061.34;5052259;28;20031;-64
2022/01/03 04:50:35;;;;;;;2.50;1.60;;;;;;;19.99;21.89;98060.97;5053395;28;20388;-65
2022/01/03 04:53:01;;;;;;;2.20;1.30;;;;;;;19.98;21.98;98059.34;5053251;28;20028;-65
2022/01/03 04:55:26;;;;;;;1.92;1.25;;;;;;;19.97;21.86;98052.31;5053688;28;20067;-64
2022/01/03 04:57:53;;;;;;;2.03;1.10;;;;;;;19.93;22.06;98051.09;5053485;28;20029;-65
2022/01/03 05:00:19;;;;;;;2.42;1.38;;;;;;;19.93;22.03;98049.25;5053091;28;20032;-65
2022/01/03 05:02:45;;;;;;;2.47;1.23;;;;;;;19.92;21.96;98041.44;5053044;28;20032;-64
2022/01/03 05:05:11;;;;;;;2.08;1.20;;;;;;;19.91;21.87;98037.91;5053243;28;20511;-65
2022/01/03 05:07:37;;;;;;;2.60;1.30;;;;;;;19.90;22.16;98038.13;5052752;28;20031;-63
2022/01/03 05:10:04;;;;;;;2.58;1.48;;;;;;;19.91;21.73;98037.91;5053637;28;20033;-64
2022/01/03 05:12:29;;;;;;;1.75;1.17;;;;;;;19.83;22.15;98033.59;5052881;28;20074;-64
2022/01/03 05:14:55;;;;;;;1.63;1.08;;;;;;;19.83;22.17;98041.66;5053319;28;20484;-64
2022/01/03 05:17:20;;;;;;;2.17;1.30;;;;;;;19.82;22.08;98036.50;5052625;28;20559;-65
2022/01/03 05:19:45;;;;;;;3.60;1.60;;;;;;;19.81;22.00;98030.31;5053455;28;20029;-65
2022/01/03 05:22:11;;;;;;;2.15;1.55;;;;;;;19.79;22.10;98032.38;5053044;28;20491;-64
2022/01/03 05:24:37;;;;;;;2.28;1.52;;;;;;;19.77;22.10;98023.75;5053456;28;20114;-65
2022/01/03 05:27:03;;;;;;;2.00;1.40;;;;;;;19.76;22.16;98013.22;5052539;28;20507;-65
2022/01/03 05:29:29;;;;;;;2.47;1.75;;;;;;;19.76;22.37;98015.91;5053367;28;20115;-65
2022/01/03 05:31:55;;;;;;;4.80;2.00;;;;;;;19.75;22.00;98019.63;5052975;28;20110;-64
2022/01/03 05:34:20;;;;;;;2.10;1.70;;;;;;;19.74;22.22;98010.75;5053269;28;20048;-64
2022/01/03 05:36:46;;;;;;;2.42;1.70;;;;;;;19.73;22.27;98014.50;5052408;28;20079;-64
2022/01/03 05:39:12;;;;;;;2.13;1.70;;;;;;;19.72;22.31;98018.22;5052794;28;20454;-64
2022/01/03 05:41:37;;;;;;;9.32;3.03;;;;;;;19.71;22.16;98013.88;5052505;28;20036;-64
2022/01/03 05:44:04;;;;;;;2.90;1.55;;;;;;;19.72;22.35;98020.06;5053025;28;20055;-65
2022/01/03 05:46:29;;;;;;;2.95;2.05;;;;;;;19.68;22.43;98014.31;5052233;28;20514;-63
2022/01/03 05:48:55;;;;;;;3.03;2.10;;;;;;;19.65;22.36;98002.16;5052348;28;20119;-64
2022/01/03 05:51:20;;;;;;;2.58;1.67;;;;;;;19.65;22.10;98006.69;5052646;28;20035;-65
2022/01/03 05:53:46;;;;;;;4.38;2.10;;;;;;;19.64;22.38;98008.56;5052997;28;20439;-65
2022/01/03 05:56:12;;;;;;;3.78;2.10;;;;;;;19.62;22.39;97999.09;5052456;28;20029;-64
2022/01/03 05:58:37;;;;;;;3.55;2.50;;;;;;;19.59;22.33;97991.47;5052328;28;20107;-68
2022/01/03 06:01:03;;;;;;;2.80;1.95;;;;;;;19.61;22.31;98000.13;5052278;28;20507;-65
2022/01/03 06:03:35;;;;;;;3.05;2.10;;;;;;;19.59;22.31;97997.66;5052116;28;20068;-64
2022/01/03 06:08:27;;;;;;;3.28;2.20;;;;;;;19.58;22.35;97984.47;5052370;28;20032;-65
2022/01/03 06:10:52;;;;;;;2.65;1.95;;;;;;;19.57;22.09;97978.25;5052459;28;20043;-66
2022/01/03 06:13:18;;;;;;;2.95;2.22;;;;;;;19.57;22.31;97983.63;5052171;28;20040;-65
2022/01/03 06:15:45;;;;;;;4.32;2.58;;;;;;;19.55;22.26;97966.13;5052314;28;20115;-65
2022/01/03 06:18:14;;;;;;;3.40;2.42;;;;;;;19.54;22.27;97968.00;5051690;28;20423;-67
2022/01/03 06:20:41;;;;;;;3.20;2.47;;;;;;;19.54;22.25;97965.31;5052241;28;20646;-66
2022/01/03 06:23:08;;;;;;;3.65;2.15;;;;;;;19.51;22.46;97963.84;5052003;28;20061;-65
2022/01/03 06:25:34;;;;;;;2.28;1.85;;;;;;;19.50;22.37;97948.00;5051861;28;20032;-66
2022/01/03 06:28:00;;;;;;;3.50;2.25;;;;;;;19.50;22.55;97948.81;5051990;28;20025;-65
2022/01/03 06:30:25;;;;;;;4.22;2.67;;;;;;;19.50;22.42;97943.44;5052206;28;20055;-66
2022/01/03 06:32:51;;;;;;;3.17;2.28;;;;;;;19.49;22.47;97944.47;5052101;28;20451;-65
2022/01/03 06:35:17;;;;;;;2.95;2.45;;;;;;;19.49;22.44;97939.09;5052167;28;20029;-66
2022/01/03 06:37:42;;;;;;;3.25;2.40;;;;;;;19.50;22.36;97934.59;5051043;28;20029;-65
2022/01/03 06:40:09;;;;;;;2.30;1.90;;;;;;;19.48;22.54;97923.25;5051745;28;20036;-65
2022/01/03 06:42:34;;;;;;;3.63;2.25;;;;;;;19.47;22.16;97927.81;5051567;28;20028;-65
2022/01/03 06:45:00;;;;;;;3.88;2.17;;;;;;;19.47;22.51;97914.38;5051909;28;20033;-65
2022/01/03 06:47:25;;;;;;;3.83;2.25;;;;;;;19.46;22.25;97912.75;5051654;28;20029;-66
2022/01/03 06:49:51;;;;;;;3.65;2.58;;;;;;;19.44;22.20;97904.09;5051764;28;20044;-65
2022/01/03 06:52:17;;;;;;;2.50;2.08;;;;;;;19.45;22.42;97911.09;5051671;28;20040;-67
2022/01/03 06:54:44;;;;;;;4.18;2.28;;;;;;;19.45;22.28;97902.22;5051375;28;20037;-67
2022/01/03 06:57:09;;;;;;;4.15;2.13;;;;;;;19.44;22.39;97903.25;5051919;28;20032;-67
2022/01/03 06:59:35;;;;;;;2.75;1.98;;;;;;;19.45;22.42;97895.00;5051849;28;20025;-67
2022/01/03 07:02:01;;;;;;;2.28;1.90;;;;;;;19.46;22.38;97899.34;5051526;28;20548;-66
2022/01/03 07:04:26;;;;;;;3.40;2.22;;;;;;;19.45;22.21;97889.66;5053740;28;20443;-67
2022/01/03 07:06:52;;;;;;;3.15;2.60;;;;;;;19.46;22.21;97899.34;5055502;28;20025;-67
2022/01/03 07:09:17;;;;;;;4.43;2.30;;;;;;;19.44;22.22;97888.00;5055552;28;20047;-67
2022/01/03 07:11:43;;;;;;;3.05;2.00;;;;;;;19.43;22.33;97881.00;5055357;28;20043;-66
2022/01/03 07:19:34;;;;;;;3.92;2.25;;;;;;;19.40;22.49;97884.09;5055671;28;20051;-65
2022/01/03 07:22:03;;;;;;;3.13;2.38;;;;;;;19.40;22.62;97880.63;5055058;28;20412;-66
2022/01/03 07:24:30;;;;;;;3.55;1.95;;;;;;;19.41;22.73;97884.94;5055130;28;20035;-66
2022/01/03 07:26:56;;;;;;;4.28;2.35;;;;;;;19.39;22.57;97887.81;5054800;28;20465;-66
2022/01/03 07:29:21;;;;;;;4.38;2.45;;;;;;;19.41;22.51;97887.63;5055117;28;20068;-65
2022/01/03 07:31:47;;;;;;;3.08;2.10;;;;;;;19.39;22.64;97884.34;5054729;28;20048;-67
2022/01/03 07:34:12;;;;;;;3.13;2.22;;;;;;;19.39;22.51;97884.34;5055326;28;20056;-67
2022/01/03 07:36:38;;;;;;;4.13;2.30;;;;;;;19.38;22.71;97875.44;5054708;28;20470;-67
2022/01/03 07:39:04;;;;;;;2.80;1.92;;;;;;;19.40;22.51;97875.25;5055012;28;20087;-66
2022/01/03 07:41:31;;;;;;;3.50;2.10;;;;;;;19.41;22.56;97883.06;5054822;28;20039;-66
2022/01/03 07:43:57;;;;;;;4.03;1.98;;;;;;;19.42;22.55;97886.56;5054746;28;20591;-66
2022/01/03 07:46:22;;;;;;;4.15;2.63;;;;;;;19.42;22.63;97879.34;5054750;28;20068;-66
2022/01/03 07:48:48;;;;;;;3.85;2.45;;;;;;;19.41;22.65;97875.03;5055016;28;20035;-66
2022/01/03 07:51:14;;;;;;;3.88;2.40;;;;;;;19.43;22.37;97874.78;5054657;28;20048;-66
2022/01/03 07:53:42;;;;;;;6.20;2.58;;;;;;;19.43;22.42;97875.63;5054802;28;20033;-66
2022/01/03 07:56:09;;;;;;;3.53;2.10;;;;;;;19.45;22.55;97872.72;5054418;28;20488;-67
2022/01/03 07:58:35;;;;;;;3.25;2.78;;;;;;;19.45;22.64;97868.19;5054134;28;20110;-67
2022/01/03 08:01:01;;;;;;;3.17;2.50;;;;;;;19.46;22.71;97869.84;5054718;28;20045;-67
2022/01/03 08:03:27;;;;;;;3.85;2.40;;;;;;;19.46;22.47;97858.25;5054521;28;20029;-65
2022/01/03 08:05:52;;;;;;;3.80;2.33;;;;;;;19.45;22.58;97852.09;5054431;28;20064;-65
2022/01/03 08:08:18;;;;;;;3.30;2.38;;;;;;;19.43;22.55;97837.25;5054362;28;20036;-65
2022/01/03 08:10:45;;;;;;;3.03;2.30;;;;;;;19.48;22.83;97854.31;5054580;28;20043;-66
2022/01/03 08:13:11;;;;;;;3.53;2.55;;;;;;;19.49;22.95;97850.59;5054287;28;20033;-65
2022/01/03 08:15:38;;;;;;;3.70;2.20;;;;;;;19.52;22.86;97839.44;5054406;28;20083;-65
2022/01/03 08:18:04;;;;;;;3.97;2.00;;;;;;;19.54;22.92;97836.53;5036773;28;20602;-65
2022/01/03 08:20:30;;;;;;;4.13;2.47;;;;;;;19.54;23.00;97838.38;5054088;28;20502;-65
2022/01/03 08:22:55;;;;;;;4.00;2.33;;;;;;;19.56;22.96;97836.31;5053923;28;20079;-65
2022/01/03 08:25:21;;;;;;;3.20;2.03;;;;;;;19.55;22.86;97821.25;5054031;28;20041;-67
2022/01/03 08:27:47;;;;;;;4.20;2.03;;;;;;;19.57;22.78;97819.97;5054313;28;20491;-67
2022/01/03 08:30:12;;;;;;;3.45;2.22;;;;;;;19.58;23.03;97818.13;5053777;28;20082;-67
2022/01/03 08:32:38;;;;;;;3.35;2.38;;;;;;;19.58;23.00;97820.81;5053705;28;20500;-66
2022/01/03 08:35:04;;;;;;;2.78;2.00;;;;;;;19.57;23.14;97811.94;5053809;28;20082;-66
2022/01/03 08:37:29;;;;;;;3.92;2.25;;;;;;;19.59;23.02;97817.09;5053868;28;20037;-67
2022/01/03 08:39:55;;;;;;;3.40;2.25;;;;;;;19.61;22.91;97804.28;5053972;28;20033;-67
2022/01/03 08:42:21;;;;;;;3.92;2.65;;;;;;;19.62;22.84;97793.31;5054141;28;20044;-66
2022/01/03 08:44:47;;;;;;;3.38;2.55;;;;;;;19.64;22.77;97791.25;5053794;28;20100;-65
2022/01/03 08:47:12;;;;;;;3.17;1.90;;;;;;;19.67;22.96;97789.97;5053654;28;20535;-66
2022/01/03 08:49:38;;;;;;;4.72;2.40;;;;;;;19.65;22.96;97790.19;5053688;28;20032;-67
2022/01/03 08:52:05;;;;;;;3.53;2.38;;;;;;;19.65;22.78;97784.00;5053665;28;20115;-65
2022/01/03 08:54:31;;;;;;;3.70;2.22;;;;;;;19.65;23.02;97781.31;5053306;28;20051;-67
2022/01/03 08:56:57;;;;;;;3.67;2.10;;;;;;;19.64;23.07;97774.31;5053324;28;20056;-67
2022/01/03 08:59:22;;;;;;;3.40;2.17;;;;;;;19.63;23.16;97776.19;5053450;28;20484;-66
2022/01/03 09:01:48;;;;;;;4.28;2.60;;;;;;;19.63;23.02;97767.31;5053105;28;20045;-67
2022/01/03 09:04:14;;;;;;;4.60;2.00;;;;;;;19.63;23.17;97759.28;5054023;28;20025;-66
2022/01/03 09:06:39;;;;;;;4.47;2.45;;;;;;;19.66;23.07;97756.13;5053425;28;20029;-66
2022/01/03 09:09:06;;;;;;;3.55;2.55;;;;;;;19.64;23.14;97742.94;5053245;28;20392;-64
2022/01/03 09:11:32;;;;;;;3.67;2.45;;;;;;;19.68;23.07;97740.63;5053157;28;20037;-64
2022/01/03 09:13:57;;;;;;;4.40;2.30;;;;;;;19.67;23.15;97733.63;5053290;28;20082;-66
2022/01/03 09:16:23;;;;;;;4.30;2.63;;;;;;;19.67;22.95;97731.78;5053348;28;20514;-66
2022/01/03 09:18:49;;;;;;;3.47;2.25;;;;;;;19.67;23.15;97725.56;5053485;28;20036;-66
2022/01/03 09:21:14;;;;;;;3.83;2.60;;;;;;;19.67;23.26;97729.09;5053285;28;20061;-65
2022/01/03 09:23:45;;;;;;;4.00;2.30;;;;;;;19.67;23.26;97721.03;5052860;28;20043;-67
2022/01/03 09:28:58;;;;;;;3.42;2.50;;;;;;;19.67;23.53;97713.00;5052577;28;20518;-66
2022/01/03 09:31:26;;;;;;;4.10;3.20;;;;;;;19.72;23.07;97720.38;5052600;28;20059;-65
2022/01/03 09:33:54;;;;;;;4.00;3.30;;;;;;;19.71;23.07;97709.84;5052451;28;20059;-64
2022/01/03 09:36:20;;;;;;;3.92;2.95;;;;;;;19.68;23.03;97711.13;5052359;28;20036;-66
2022/01/03 09:38:46;;;;;;;5.50;3.53;;;;;;;19.66;23.03;97711.34;5052455;28;20044;-65
2022/01/03 09:41:13;;;;;;;4.05;3.00;;;;;;;19.67;22.95;97709.47;5052408;28;20516;-65
2022/01/03 09:43:53;;;;;;;3.90;2.83;;;;;;;19.65;23.02;97703.50;5052193;28;20606;-65
2022/01/03 09:46:23;;;;;;;3.70;3.05;;;;;;;19.65;22.89;97706.19;5052419;28;20496;-66
2022/01/03 09:48:52;;;;;;;4.10;2.97;;;;;;;19.63;22.92;97709.09;5052221;28;20373;-66
2022/01/03 09:51:30;;;;;;;6.95;3.08;;;;;;;19.62;22.85;97703.97;5052171;28;20029;-65
2022/01/03 09:54:05;;;;;;;6.10;3.33;;;;;;;19.64;22.72;97704.56;5052556;28;20119;-65
2022/01/03 09:56:34;;;;;;;6.20;3.75;;;;;;;19.62;22.65;97698.63;5052489;28;20500;-65
2022/01/03 09:59:00;;;;;;;3.88;2.67;;;;;;;19.61;22.66;97694.28;5052142;28;20059;-66
2022/01/03 10:01:27;;;;;;;4.07;3.00;;;;;;;19.60;22.70;97689.97;5052267;28;20037;-64
2022/01/03 10:03:53;;;;;;;5.60;3.35;;;;;;;19.59;22.72;97686.44;5052493;28;20101;-64
2022/01/03 10:06:20;;;;;;;4.45;2.90;;;;;;;19.60;22.87;97689.97;5052147;28;20032;-66
2022/01/03 10:08:47;;;;;;;4.05;2.67;;;;;;;19.60;22.72;97687.28;5052292;28;20108;-66
2022/01/03 10:11:13;;;;;;;5.22;3.35;;;;;;;19.58;22.65;97679.44;5052329;28;20032;-65
2022/01/03 10:13:40;;;;;;;5.63;3.22;;;;;;;19.58;22.73;97675.97;5052110;28;20112;-66
2022/01/03 10:16:06;;;;;;;4.18;2.92;;;;;;;19.56;22.79;97680.72;5051945;28;20029;-65
2022/01/03 10:18:33;;;;;;;3.47;2.97;;;;;;;19.57;23.04;97671.63;5051687;28;20045;-65
2022/01/03 10:21:00;;;;;;;4.25;2.90;;;;;;;19.57;22.99;97667.06;5052350;28;20071;-65
2022/01/03 10:23:25;;;;;;;5.00;3.80;;;;;;;19.57;22.71;97671.63;5051921;28;20029;-65
2022/01/03 10:25:51;;;;;;;5.45;4.13;;;;;;;19.55;22.65;97663.81;5052234;28;20111;-65
2022/01/03 10:28:23;;;;;;;8.15;4.95;;;;;;;19.54;22.61;97655.97;5051184;28;20456;-64
2022/01/03 10:30:49;;;;;;;8.57;5.10;;;;;;;19.54;22.68;97645.25;5051693;28;20111;-66
2022/01/03 10:33:21;;;;;;;9.85;5.22;;;;;;;19.53;22.62;97647.13;5032077;28;20033;-65
2022/01/03 10:35:51;;;;;;;7.32;5.03;;;;;;;19.55;22.50;97637.00;5047337;28;20402;-65
2022/01/03 10:38:37;;;;;;;7.47;4.78;;;;;;;19.52;22.79;97643.63;5051478;28;20025;-65
2022/01/03 10:41:16;;;;;;;6.80;4.63;;;;;;;19.52;22.47;97638.25;5056164;28;20078;-65
2022/01/03 10:43:43;;;;;;;6.40;4.50;;;;;;;19.51;22.57;97633.94;5056105;28;20131;-65
2022/01/03 10:46:18;;;;;;;7.25;4.18;;;;;;;19.52;22.59;97626.72;5055909;28;20040;-65
2022/01/03 10:48:44;;;;;;;6.30;4.53;;;;;;;19.51;22.62;97627.75;5056121;28;20367;-66
2022/01/03 10:51:10;;;;;;;4.72;3.65;;;;;;;19.49;22.69;97625.28;5055852;28;20117;-66
2022/01/03 10:53:37;;;;;;;4.72;3.40;;;;;;;19.51;22.73;97639.28;5055387;28;20043;-66
2022/01/03 10:56:28;;;;;;;5.47;4.13;;;;;;;19.51;22.98;97636.59;5055901;28;20036;-65
2022/01/03 10:58:59;;;;;;;4.47;3.33;;;;;;;19.50;22.93;97632.28;5037521;28;20037;-65
2022/01/03 11:01:27;;;;;;;5.82;3.88;;;;;;;19.50;22.92;97631.47;5055963;28;20029;-66
2022/01/03 11:03:55;;;;;;;6.53;3.97;;;;;;;19.52;22.94;97624.84;5055509;28;20113;-65
2022/01/03 11:11:45;;;;;;;5.32;3.97;;;;;;;19.55;23.01;97625.44;5055722;28;20106;-66
2022/01/03 11:14:28;;;;;;;;;;;;;;;19.45;23.40;97621.44;5056035;28;20373;-65
2022/01/03 11:16:54;;;;;;;4.97;3.78;;;;;;;19.48;23.21;97620.16;5055094;28;19924;-65
2022/01/03 11:19:39;;;;;;;5.63;3.80;;;;;;;19.49;23.22;97614.56;5055449;28;20136;-66
2022/01/03 11:22:05;;;;;;;6.07;3.70;;;;;;;19.49;23.02;97603.03;5055240;28;20029;-64
2022/01/03 11:24:32;;;;;;;4.82;3.28;;;;;;;19.50;23.20;97604.66;5054943;28;20111;-66
2022/01/03 11:26:58;;;;;;;4.32;3.42;;;;;;;19.50;22.91;97602.78;5055162;28;20033;-65
2022/01/03 11:29:28;;;;;;;7.57;3.10;;;;;;;19.46;23.02;97598.94;5055344;28;20577;-66
2022/01/03 11:31:54;;;;;;;3.83;3.08;;;;;;;19.47;23.03;97608.63;5055122;28;20443;-65
2022/01/03 11:34:24;;;;;;;4.75;3.30;;;;;;;19.46;23.10;97606.97;5054897;28;20040;-66
2022/01/03 11:36:50;;;;;;;5.05;3.17;;;;;;;19.45;22.83;97605.34;5054615;28;20111;-65
2022/01/03 11:39:19;;;;;;;3.92;3.25;;;;;;;19.46;23.08;97598.09;5054684;28;20119;-65
2022/01/03 11:41:45;;;;;;;4.50;3.50;;;;;;;19.43;22.97;97602.06;5055024;28;20047;-66
2022/01/03 11:44:12;;;;;;;4.43;3.17;;;;;;;19.42;23.01;97597.75;5054764;28;20040;-65
2022/01/03 11:46:40;;;;;;;4.35;3.35;;;;;;;19.42;23.01;97597.75;5054804;28;20408;-65
2022/01/03 11:49:06;;;;;;;6.30;3.92;;;;;;;19.40;23.07;97594.47;5054287;28;20040;-65
2022/01/03 11:51:33;;;;;;;4.93;3.80;;;;;;;19.41;23.05;97600.66;5054197;28;20036;-66
2022/01/03 11:54:02;;;;;;;5.65;3.50;;;;;;;19.42;22.90;97605.78;5054456;28;20041;-64
2022/01/03 11:56:29;;;;;;;5.57;3.33;;;;;;;19.41;23.07;97604.16;5054649;28;20041;-65